createdAt,value
2018-05-07T05:58:33.460Z,33.60
2018-05-07T06:01:05.350Z,34.30
2018-05-07T06:03:37.290Z,33.00
2018-05-07T06:06:09.631Z,33.70
2018-05-07T06:08:41.537Z,33.80
2018-05-07T06:11:13.414Z,33.00
2018-05-07T06:13:45.298Z,32.10
2018-05-07T06:16:17.962Z,32.00
2018-05-07T06:18:50.606Z,32.30
2018-05-07T06:21:22.517Z,31.90
2018-05-07T06:23:55.157Z,32.20
2018-05-07T06:26:27.050Z,32.20
2018-05-07T06:29:00.057Z,31.70
2018-05-07T06:31:31.964Z,31.70
2018-05-07T06:34:03.830Z,32.30
2018-05-07T06:36:36.937Z,32.30
2018-05-07T06:39:08.805Z,32.00
2018-05-07T06:41:41.489Z,31.20
2018-05-07T06:44:14.221Z,30.60
2018-05-07T06:46:46.111Z,30.50
2018-05-07T06:49:18.763Z,30.80
2018-05-07T06:51:50.676Z,30.80
2018-05-07T06:54:23.312Z,30.40
2018-05-07T06:56:55.292Z,30.30
2018-05-07T06:59:28.335Z,30.20
2018-05-07T07:02:00.237Z,30.10
2018-05-07T07:04:32.885Z,29.50
2018-05-07T07:07:04.773Z,30.00
2018-05-07T07:09:36.637Z,30.60
2018-05-07T07:12:08.527Z,30.80
2018-05-07T07:14:40.697Z,30.70
2018-05-07T07:17:12.577Z,31.30
2018-05-07T07:19:44.445Z,31.60
2018-05-07T07:22:16.353Z,31.50
2018-05-07T07:24:49.005Z,30.10
2018-05-07T07:27:20.910Z,30.10
2018-05-07T07:29:52.813Z,29.90
2018-05-07T07:32:24.705Z,30.30
2018-05-07T07:34:56.582Z,29.80
2018-05-07T07:37:29.234Z,30.00
2018-05-07T07:40:01.107Z,30.00
2018-05-07T07:42:34.014Z,30.50
2018-05-07T07:45:05.885Z,30.50
2018-05-07T07:47:37.770Z,30.30
2018-05-07T07:50:09.656Z,30.00
2018-05-07T07:52:41.542Z,29.50
2018-05-07T07:55:14.438Z,29.80
2018-05-07T07:57:46.338Z,29.90
2018-05-07T08:00:18.211Z,29.70
2018-05-07T08:02:50.106Z,30.00
2018-05-07T08:05:22.759Z,31.80
2018-05-07T08:07:54.640Z,31.20
2018-05-07T08:10:27.543Z,31.40
2018-05-07T08:12:59.442Z,31.30
2018-05-07T08:15:31.571Z,31.40
2018-05-07T08:18:03.482Z,31.50
2018-05-07T08:20:35.356Z,31.90
2018-05-07T08:23:07.248Z,32.00
2018-05-07T08:25:39.129Z,32.60
2018-05-07T08:28:11.018Z,32.30
2018-05-07T08:30:42.905Z,33.00
2018-05-07T08:33:15.097Z,32.80
2018-05-07T08:35:46.978Z,32.20
2018-05-07T08:38:18.868Z,31.80
2018-05-07T08:40:50.741Z,31.90
2018-05-07T08:43:22.631Z,31.10
2018-05-07T08:45:55.521Z,32.20
2018-05-07T08:48:27.407Z,32.30
2018-05-07T08:50:59.353Z,32.00
2018-05-07T08:53:31.409Z,32.30
2018-05-07T08:56:03.577Z,31.40
2018-05-07T08:58:35.753Z,31.80
2018-05-07T09:01:07.625Z,30.60
2018-05-07T09:03:39.521Z,30.00
2018-05-07T09:06:11.393Z,29.90
2018-05-07T09:08:43.278Z,30.60
2018-05-07T09:11:15.154Z,30.40
2018-05-07T09:13:47.037Z,30.10
2018-05-07T09:16:18.913Z,30.20
2018-05-07T09:18:51.958Z,30.00
2018-05-07T09:21:24.118Z,30.20
2018-05-07T09:23:56.014Z,30.80
2018-05-07T09:26:27.877Z,30.40
2018-05-07T09:28:59.766Z,29.50
2018-05-07T09:31:31.657Z,29.40
2018-05-07T09:34:04.335Z,29.80
2018-05-07T09:36:37.013Z,30.00
2018-05-07T09:39:09.668Z,30.20
2018-05-07T09:41:41.538Z,30.20
2018-05-07T09:44:14.437Z,30.60
2018-05-07T09:46:46.301Z,30.60
2018-05-07T09:49:18.190Z,30.40
2018-05-07T09:51:50.065Z,30.20
2018-05-07T09:54:21.950Z,29.60
2018-05-07T09:56:54.837Z,28.70
2018-05-07T09:59:26.706Z,29.20
2018-05-07T10:01:59.337Z,28.90
2018-05-07T10:04:31.236Z,28.90
2018-05-07T10:07:03.114Z,28.70
2018-05-07T10:09:35.769Z,28.40
2018-05-07T10:12:07.657Z,28.40
2018-05-07T10:14:40.313Z,28.20
2018-05-07T10:17:12.503Z,28.20
2018-05-07T10:19:44.394Z,29.40
2018-05-07T10:22:16.271Z,29.20
2018-05-07T10:24:48.168Z,29.50
2018-05-07T10:27:20.807Z,28.90
2018-05-07T10:29:52.755Z,28.80
2018-05-07T10:32:25.406Z,28.50
2018-05-07T10:34:57.287Z,28.50
2018-05-07T10:37:29.165Z,29.30
2018-05-07T10:40:01.048Z,30.30
2018-05-07T10:42:32.925Z,29.90
2018-05-07T10:45:05.577Z,29.60
2018-05-07T10:47:37.482Z,29.70
2018-05-07T10:50:09.418Z,29.30
2018-05-07T10:52:42.076Z,29.00
2018-05-07T10:55:13.962Z,29.00
2018-05-07T10:57:46.619Z,29.40
2018-05-07T11:00:18.567Z,29.30
2018-05-07T11:02:51.208Z,30.90
2018-05-07T11:05:23.103Z,30.90
2018-05-07T11:07:55.222Z,31.90
2018-05-07T11:10:27.113Z,32.50
2018-05-07T11:12:59.006Z,32.90
2018-05-07T11:15:30.894Z,33.60
2018-05-07T11:18:03.539Z,33.80
2018-05-07T11:20:35.749Z,33.80
2018-05-07T11:23:07.917Z,34.30
2018-05-07T11:25:39.825Z,34.70
2018-05-07T11:28:11.726Z,34.00
2018-05-07T11:30:44.410Z,35.60
2018-05-07T11:33:17.046Z,35.80
2018-05-07T11:35:48.937Z,35.80
2018-05-07T11:38:21.577Z,36.60
2018-05-07T11:40:53.470Z,36.30
2018-05-07T11:43:26.121Z,36.80
2018-05-07T11:45:58.010Z,36.30
2018-05-07T11:48:30.662Z,36.40
2018-05-07T11:51:02.546Z,36.40
2018-05-07T11:53:34.737Z,35.60
2018-05-07T11:58:44.912Z,35.10
2018-05-07T12:01:17.080Z,36.70
2018-05-07T12:03:48.968Z,35.10
2018-05-07T12:06:20.853Z,34.90
2018-05-07T12:08:52.971Z,35.80
2018-05-07T12:11:24.857Z,35.80
2018-05-07T12:13:56.725Z,36.20
2018-05-07T12:16:28.618Z,35.40
2018-05-07T12:19:00.498Z,36.00
2018-05-07T12:21:32.394Z,35.60
2018-05-07T12:24:04.268Z,35.50
2018-05-07T12:26:36.155Z,35.30
2018-05-07T12:29:08.149Z,35.10
2018-05-07T12:31:40.170Z,35.30
2018-05-07T12:34:11.922Z,35.00
2018-05-07T12:36:43.901Z,35.10
2018-05-07T12:39:15.797Z,35.20
2018-05-07T12:41:47.681Z,34.70
2018-05-07T12:44:19.597Z,34.30
2018-05-07T12:46:52.283Z,35.10
2018-05-07T12:49:24.151Z,35.00
2018-05-07T12:51:56.022Z,35.10
2018-05-07T12:54:27.936Z,35.70
2018-05-07T12:56:59.809Z,34.90
2018-05-07T12:59:32.814Z,35.40
2018-05-07T13:02:04.696Z,35.40
2018-05-07T13:04:36.683Z,34.10
2018-05-07T13:07:08.671Z,33.40
2018-05-07T13:09:40.565Z,34.10
2018-05-07T13:12:12.442Z,34.80
2018-05-07T13:14:44.590Z,34.30
2018-05-07T13:17:16.524Z,34.30
2018-05-07T13:19:48.389Z,33.80
2018-05-07T13:22:21.070Z,33.70
2018-05-07T13:24:53.761Z,33.70
2018-05-07T13:27:25.643Z,34.30
2018-05-07T13:29:57.647Z,33.10
2018-05-07T13:32:29.608Z,33.60
2018-05-07T13:35:01.525Z,34.10
2018-05-07T13:37:33.472Z,34.40
2018-05-07T13:40:06.139Z,33.50
2018-05-07T13:42:39.034Z,34.40
2018-05-07T13:45:10.937Z,34.40
2018-05-07T13:47:42.821Z,34.80
2018-05-07T13:50:14.744Z,34.70
2018-05-07T13:52:46.614Z,34.60
2018-05-07T13:55:19.673Z,34.50
2018-05-07T13:57:51.561Z,34.60
2018-05-07T14:00:23.483Z,34.40
2018-05-07T14:02:55.380Z,34.20
2018-05-07T14:05:27.274Z,34.20
2018-05-07T14:07:59.151Z,32.20
2018-05-07T14:10:31.844Z,32.20
2018-05-07T14:13:04.492Z,32.80
2018-05-07T14:15:36.406Z,32.80
2018-05-07T14:18:08.291Z,33.20
2018-05-07T14:20:40.431Z,33.60
2018-05-07T14:23:12.585Z,33.30
2018-05-07T14:25:44.482Z,33.30
2018-05-07T14:28:16.369Z,33.40
2018-05-07T14:30:48.360Z,33.90
2018-05-07T14:33:21.064Z,33.90
2018-05-07T14:35:52.953Z,33.90
2018-05-07T14:38:24.831Z,33.10
2018-05-07T14:40:56.730Z,33.60
2018-05-07T14:43:28.606Z,32.00
2018-05-07T14:46:01.299Z,31.80
2018-05-07T14:48:33.210Z,31.80
2018-05-07T14:51:05.861Z,32.00
2018-05-07T14:53:37.740Z,32.00
2018-05-07T14:56:10.389Z,32.20
2018-05-07T14:58:42.398Z,32.20
2018-05-07T15:01:14.249Z,32.50
2018-05-07T15:03:46.887Z,31.80
2018-05-07T15:06:18.785Z,31.80
2018-05-07T15:08:51.442Z,31.70
2018-05-07T15:11:23.338Z,31.70
2018-05-07T15:14:07.294Z,31.70
2018-05-07T15:16:39.946Z,32.30
2018-05-07T15:19:12.846Z,31.20
2018-05-07T15:21:44.726Z,31.70
2018-05-07T15:24:16.597Z,30.60
2018-05-07T15:26:48.482Z,30.70
2018-05-07T15:29:20.474Z,31.90
2018-05-07T15:31:53.025Z,31.20
2018-05-07T15:34:24.905Z,31.20
2018-05-07T15:36:57.590Z,31.80
2018-05-07T15:39:30.238Z,31.70
2018-05-07T15:42:02.125Z,31.60
2018-05-07T15:44:34.765Z,32.00
2018-05-07T15:47:06.654Z,32.00
2018-05-07T15:49:38.845Z,30.90
2018-05-07T15:52:10.941Z,31.90
2018-05-07T15:54:43.080Z,31.30
2018-05-07T15:57:14.986Z,31.20
2018-05-07T15:59:47.101Z,31.40
2018-05-07T16:02:18.986Z,31.00
2018-05-07T16:04:50.873Z,31.80
2018-05-07T16:07:22.988Z,31.90
2018-05-07T16:09:54.874Z,31.90
2018-05-07T16:12:26.762Z,31.70
2018-05-07T16:14:58.692Z,31.60
2018-05-07T16:17:30.526Z,31.80
2018-05-07T16:20:02.429Z,32.10
2018-05-07T16:22:34.329Z,32.20
2018-05-07T16:25:07.077Z,32.00
2018-05-07T16:27:38.974Z,32.00
2018-05-07T16:30:11.618Z,31.40
2018-05-07T16:32:43.510Z,31.40
2018-05-07T16:35:16.420Z,31.50
2018-05-07T16:37:48.590Z,31.50
2018-05-07T16:40:20.476Z,31.90
2018-05-07T16:42:52.453Z,32.30
2018-05-07T16:45:25.030Z,31.40
2018-05-07T16:47:56.922Z,31.30
2018-05-07T16:50:29.561Z,31.80
2018-05-07T16:53:01.526Z,31.80
2018-05-07T16:55:33.401Z,32.10
2018-05-07T16:58:05.400Z,31.90
2018-05-07T17:00:37.177Z,31.90
2018-05-07T17:03:09.061Z,31.40
2018-05-07T17:05:41.185Z,31.50
2018-05-07T17:08:13.122Z,31.20
2018-05-07T17:10:44.957Z,31.70
2018-05-07T17:13:16.858Z,31.30
2018-05-07T17:15:49.513Z,31.60
2018-05-07T17:18:22.177Z,31.80
2018-05-07T17:20:54.076Z,31.80
2018-05-07T17:23:26.731Z,33.30
2018-05-07T17:25:58.619Z,33.30
2018-05-07T17:28:32.932Z,33.30
2018-05-07T17:31:04.818Z,33.30
2018-05-07T17:33:37.059Z,33.80
2018-05-07T17:36:08.846Z,33.60
2018-05-07T17:38:40.782Z,33.60
2018-05-07T17:41:13.424Z,33.60
2018-05-07T17:43:45.318Z,33.50
2018-05-07T17:49:26.422Z,33.90
2018-05-07T17:51:59.069Z,33.80
2018-05-07T17:54:30.974Z,33.80
2018-05-07T17:57:02.841Z,34.20
2018-05-07T17:59:34.717Z,34.80
2018-05-07T18:02:06.654Z,34.10
2018-05-07T18:04:38.620Z,34.50
2018-05-07T18:07:10.661Z,34.50
2018-05-07T18:09:43.343Z,35.10
2018-05-07T18:12:15.974Z,35.50
2018-05-07T18:14:47.895Z,35.40
2018-05-07T18:17:19.802Z,35.60
2018-05-07T18:19:51.770Z,35.60
2018-05-07T18:22:23.710Z,35.60
2018-05-07T18:24:55.610Z,35.40
2018-05-07T18:27:27.494Z,35.10
2018-05-07T18:29:59.425Z,35.20
2018-05-07T18:32:31.305Z,35.80
2018-05-07T18:35:04.095Z,36.40
2018-05-07T18:37:36.022Z,36.20
2018-05-07T18:40:07.974Z,36.10
2018-05-07T18:42:39.917Z,36.50
2018-05-07T18:45:11.857Z,36.60
2018-05-07T18:47:44.094Z,37.40
2018-05-07T18:50:16.752Z,37.40
2018-05-07T18:52:48.621Z,37.30
2018-05-07T18:55:20.523Z,37.90
2018-05-07T18:57:52.472Z,38.10
2018-05-07T19:00:24.567Z,38.10
2018-05-07T19:02:58.173Z,38.60
2018-05-07T19:05:30.075Z,38.60
2018-05-07T19:08:02.720Z,38.80
2018-05-07T19:10:34.626Z,38.80
2018-05-07T19:13:07.320Z,39.50
2018-05-07T19:15:39.217Z,39.50
2018-05-07T19:18:11.103Z,39.50
2018-05-07T19:20:42.994Z,40.10
2018-05-07T19:23:14.874Z,39.90
2018-05-07T19:25:46.762Z,40.30
2018-05-07T19:28:18.650Z,40.40
2018-05-07T19:30:51.335Z,40.50
2018-05-07T19:33:24.237Z,40.60
2018-05-07T19:35:56.128Z,40.50
2018-05-07T19:38:28.265Z,40.50
2018-05-07T19:41:00.214Z,40.90
2018-05-07T19:43:33.110Z,41.00
2018-05-07T19:46:05.001Z,41.00
2018-05-07T19:48:36.890Z,41.10
2018-05-07T19:51:09.097Z,41.30
2018-05-07T19:53:40.970Z,41.30
2018-05-07T19:56:12.909Z,41.20
2018-05-07T19:58:45.561Z,42.20
2018-05-07T20:01:17.455Z,41.50
2018-05-07T20:03:50.165Z,42.00
2018-05-07T20:06:22.053Z,42.00
2018-05-07T20:08:54.952Z,42.20
2018-05-07T20:11:26.944Z,42.40
2018-05-07T20:13:58.814Z,42.80
2018-05-07T20:16:30.697Z,43.40
2018-05-07T20:19:02.830Z,42.90
2018-05-07T20:21:34.726Z,42.70
2018-05-07T20:24:06.602Z,43.00
2018-05-07T20:26:38.501Z,42.80
2018-05-07T20:29:11.158Z,42.60
2018-05-07T20:31:43.806Z,42.60
2018-05-07T20:34:15.939Z,42.60
2018-05-07T20:36:47.823Z,42.80
2018-05-07T20:39:19.738Z,42.90
2018-05-07T20:41:52.403Z,43.10
2018-05-07T20:44:24.359Z,43.10
2018-05-07T20:46:56.281Z,43.40
2018-05-07T20:49:28.166Z,43.30
2018-05-07T20:52:00.066Z,43.50
2018-05-07T20:54:32.716Z,43.70
2018-05-07T20:57:04.922Z,43.70
2018-05-07T20:59:36.800Z,43.90
